sensor_id;sensor_type;location;lat;lon;timestamp;pressure;altitude;pressure_sealevel;temperature;humidity
10988;BME280;5547;42.672;23.230;2023-07-24T00:01:44;93571.34;;;16.01;100.00
10988;BME280;5547;42.672;23.230;2023-07-24T00:04:44;93551.84;;;15.87;100.00
10988;BME280;5547;42.672;23.230;2023-07-24T00:07:45;93576.53;;;15.95;100.00
10988;BME280;5547;42.672;23.230;2023-07-24T00:10:45;93571.06;;;15.86;100.00
10988;BME280;5547;42.672;23.230;2023-07-24T00:13:45;93575.88;;;15.91;100.00
10988;BME280;5547;42.672;23.230;2023-07-24T00:16:46;93576.31;;;15.89;100.00
10988;BME280;5547;42.672;23.230;2023-07-24T00:19:46;93574.81;;;15.88;100.00
10988;BME280;5547;42.672;23.230;2023-07-24T00:22:47;93561.13;;;15.73;100.00
10988;BME280;5547;42.672;23.230;2023-07-24T00:25:47;93552.16;;;15.64;100.00
10988;BME280;5547;42.672;23.230;2023-07-24T00:28:48;93536.22;;;15.60;100.00
10988;BME280;5547;42.672;23.230;2023-07-24T00:31:48;93537.16;;;15.66;100.00
10988;BME280;5547;42.672;23.230;2023-07-24T00:34:49;93549.19;;;15.74;100.00
10988;BME280;5547;42.672;23.230;2023-07-24T00:37:49;93528.59;;;15.59;100.00
10988;BME280;5547;42.672;23.230;2023-07-24T00:40:50;93574.06;;;15.88;100.00
10988;BME280;5547;42.672;23.230;2023-07-24T00:43:50;93554.66;;;15.71;100.00
10988;BME280;5547;42.672;23.230;2023-07-24T00:46:51;93531.28;;;15.59;100.00
10988;BME280;5547;42.672;23.230;2023-07-24T00:49:51;93543.06;;;15.61;100.00
10988;BME280;5547;42.672;23.230;2023-07-24T00:52:52;93567.31;;;15.70;100.00
10988;BME280;5547;42.672;23.230;2023-07-24T00:55:52;93567.00;;;15.55;100.00
10988;BME280;5547;42.672;23.230;2023-07-24T00:58:54;93558.94;;;15.55;100.00
10988;BME280;5547;42.672;23.230;2023-07-24T01:01:57;93542.97;;;15.39;100.00
10988;BME280;5547;42.672;23.230;2023-07-24T01:04:59;93519.91;;;15.29;100.00
10988;BME280;5547;42.672;23.230;2023-07-24T01:07:59;93477.59;;;14.98;100.00
10988;BME280;5547;42.672;23.230;2023-07-24T01:11:04;93532.59;;;15.41;100.00
10988;BME280;5547;42.672;23.230;2023-07-24T01:14:23;93548.13;;;15.46;100.00
10988;BME280;5547;42.672;23.230;2023-07-24T01:17:26;93542.97;;;15.39;100.00
10988;BME280;5547;42.672;23.230;2023-07-24T01:20:29;93499.00;;;14.98;100.00
10988;BME280;5547;42.672;23.230;2023-07-24T01:26:53;93523.47;;;15.26;100.00
10988;BME280;5547;42.672;23.230;2023-07-24T01:29:53;93537.63;;;15.39;100.00
10988;BME280;5547;42.672;23.230;2023-07-24T01:32:53;93537.63;;;15.39;100.00
10988;BME280;5547;42.672;23.230;2023-07-24T01:35:57;93550.91;;;15.43;100.00
10988;BME280;5547;42.672;23.230;2023-07-24T01:38:59;93550.91;;;15.43;100.00
10988;BME280;5547;42.672;23.230;2023-07-24T01:42:00;93556.06;;;15.37;100.00
10988;BME280;5547;42.672;23.230;2023-07-24T01:45:03;93559.78;;;15.27;100.00
10988;BME280;5547;42.672;23.230;2023-07-24T01:48:04;93515.94;;;14.95;100.00
10988;BME280;5547;42.672;23.230;2023-07-24T01:51:05;93540.06;;;15.08;100.00
10988;BME280;5547;42.672;23.230;2023-07-24T01:54:05;93544.66;;;15.07;100.00
10988;BME280;5547;42.672;23.230;2023-07-24T01:57:06;93558.84;;;15.21;100.00
10988;BME280;5547;42.672;23.230;2023-07-24T02:00:07;93560.75;;;15.20;100.00
10988;BME280;5547;42.672;23.230;2023-07-24T02:03:07;93549.19;;;15.36;100.00
10988;BME280;5547;42.672;23.230;2023-07-24T02:06:08;93512.84;;;15.09;100.00
10988;BME280;5547;42.672;23.230;2023-07-24T02:09:09;93512.31;;;15.15;100.00
10988;BME280;5547;42.672;23.230;2023-07-24T02:12:10;93499.00;;;14.98;100.00
10988;BME280;5547;42.672;23.230;2023-07-24T02:15:10;93562.81;;;15.42;100.00
10988;BME280;5547;42.672;23.230;2023-07-24T02:18:10;93538.47;;;15.36;100.00
10988;BME280;5547;42.672;23.230;2023-07-24T02:21:11;93496.22;;;15.15;100.00
10988;BME280;5547;42.672;23.230;2023-07-24T02:24:11;93538.78;;;15.38;100.00
10988;BME280;5547;42.672;23.230;2023-07-24T02:27:12;93500.50;;;14.99;100.00
10988;BME280;5547;42.672;23.230;2023-07-24T02:30:14;93512.06;;;14.96;100.00
10988;BME280;5547;42.672;23.230;2023-07-24T02:33:15;93548.75;;;15.25;100.00
10988;BME280;5547;42.672;23.230;2023-07-24T02:36:15;93518.63;;;15.08;100.00
10988;BME280;5547;42.672;23.230;2023-07-24T02:39:16;93549.06;;;15.27;100.00
10988;BME280;5547;42.672;23.230;2023-07-24T02:42:16;93546.19;;;15.21;100.00
10988;BME280;5547;42.672;23.230;2023-07-24T02:45:17;93540.59;;;15.16;100.00
10988;BME280;5547;42.672;23.230;2023-07-24T02:48:17;93475.50;;;14.64;100.00
10988;BME280;5547;42.672;23.230;2023-07-24T02:51:17;93506.28;;;14.85;100.00
10988;BME280;5547;42.672;23.230;2023-07-24T02:54:18;93539.31;;;15.07;100.00
10988;BME280;5547;42.672;23.230;2023-07-24T02:57:18;93540.91;;;15.05;100.00
10988;BME280;5547;42.672;23.230;2023-07-24T03:00:19;93539.50;;;15.00;100.00
10988;BME280;5547;42.672;23.230;2023-07-24T03:03:19;93540.03;;;14.95;100.00
10988;BME280;5547;42.672;23.230;2023-07-24T03:06:19;93538.00;;;14.86;100.00
10988;BME280;5547;42.672;23.230;2023-07-24T03:09:20;93527.34;;;14.70;100.00
10988;BME280;5547;42.672;23.230;2023-07-24T03:12:20;93535.59;;;14.76;100.00
10988;BME280;5547;42.672;23.230;2023-07-24T03:15:21;93523.50;;;14.71;100.00
10988;BME280;5547;42.672;23.230;2023-07-24T03:18:21;93504.78;;;14.42;100.00
10988;BME280;5547;42.672;23.230;2023-07-24T03:21:22;93536.53;;;14.69;100.00
10988;BME280;5547;42.672;23.230;2023-07-24T03:24:22;93511.41;;;14.50;100.00
10988;BME280;5547;42.672;23.230;2023-07-24T03:27:23;93510.56;;;14.53;100.00
10988;BME280;5547;42.672;23.230;2023-07-24T03:30:23;93538.59;;;14.78;100.00
10988;BME280;5547;42.672;23.230;2023-07-24T03:33:24;93513.19;;;14.57;100.00
10988;BME280;5547;42.672;23.230;2023-07-24T03:36:24;93544.50;;;14.85;100.00
10988;BME280;5547;42.672;23.230;2023-07-24T03:39:25;93532.94;;;14.76;100.00
10988;BME280;5547;42.672;23.230;2023-07-24T03:42:26;93539.72;;;14.93;100.00
10988;BME280;5547;42.672;23.230;2023-07-24T03:45:27;93520.31;;;14.89;100.00
10988;BME280;5547;42.672;23.230;2023-07-24T03:48:27;93534.25;;;14.97;100.00
10988;BME280;5547;42.672;23.230;2023-07-24T03:51:28;93528.16;;;14.96;100.00
10988;BME280;5547;42.672;23.230;2023-07-24T03:54:28;93434.22;;;14.36;100.00
10988;BME280;5547;42.672;23.230;2023-07-24T03:57:29;93500.59;;;14.83;100.00
10988;BME280;5547;42.672;23.230;2023-07-24T04:00:29;93546.50;;;15.36;100.00
10988;BME280;5547;42.672;23.230;2023-07-24T04:03:29;93548.00;;;15.50;100.00
10988;BME280;5547;42.672;23.230;2023-07-24T04:06:30;93556.38;;;15.65;100.00
10988;BME280;5547;42.672;23.230;2023-07-24T04:09:30;93564.50;;;16.00;100.00
10988;BME280;5547;42.672;23.230;2023-07-24T04:12:31;93566.72;;;16.14;100.00
10988;BME280;5547;42.672;23.230;2023-07-24T04:15:31;93576.66;;;16.26;100.00
10988;BME280;5547;42.672;23.230;2023-07-24T04:18:32;93510.78;;;15.90;100.00
10988;BME280;5547;42.672;23.230;2023-07-24T04:21:32;93560.03;;;16.31;100.00
10988;BME280;5547;42.672;23.230;2023-07-24T04:24:33;93546.75;;;16.15;100.00
10988;BME280;5547;42.672;23.230;2023-07-24T04:27:33;93572.41;;;16.51;100.00
10988;BME280;5547;42.672;23.230;2023-07-24T04:30:33;93561.56;;;16.76;100.00
10988;BME280;5547;42.672;23.230;2023-07-24T04:33:34;93533.63;;;16.96;100.00
10988;BME280;5547;42.672;23.230;2023-07-24T04:36:34;93533.50;;;16.99;100.00
10988;BME280;5547;42.672;23.230;2023-07-24T04:39:35;93554.03;;;17.47;100.00
10988;BME280;5547;42.672;23.230;2023-07-24T04:42:35;93574.72;;;17.99;100.00
10988;BME280;5547;42.672;23.230;2023-07-24T04:45:35;93569.53;;;18.33;100.00
10988;BME280;5547;42.672;23.230;2023-07-24T04:48:36;93574.47;;;18.62;100.00
10988;BME280;5547;42.672;23.230;2023-07-24T04:51:36;93551.28;;;18.64;100.00
10988;BME280;5547;42.672;23.230;2023-07-24T04:54:37;93589.31;;;18.94;100.00
10988;BME280;5547;42.672;23.230;2023-07-24T04:57:37;93587.78;;;19.21;100.00
10988;BME280;5547;42.672;23.230;2023-07-24T05:00:37;93584.53;;;19.50;100.00
10988;BME280;5547;42.672;23.230;2023-07-24T05:03:38;93498.94;;;18.56;100.00
10988;BME280;5547;42.672;23.230;2023-07-24T05:06:38;93574.44;;;19.26;100.00
10988;BME280;5547;42.672;23.230;2023-07-24T05:09:39;93589.19;;;19.49;100.00
10988;BME280;5547;42.672;23.230;2023-07-24T05:12:42;93598.00;;;19.59;100.00
10988;BME280;5547;42.672;23.230;2023-07-24T05:15:42;93560.22;;;19.59;100.00
10988;BME280;5547;42.672;23.230;2023-07-24T05:18:43;93603.22;;;19.81;100.00
10988;BME280;5547;42.672;23.230;2023-07-24T05:21:43;93596.03;;;19.78;100.00
10988;BME280;5547;42.672;23.230;2023-07-24T05:24:44;93584.09;;;19.94;100.00
10988;BME280;5547;42.672;23.230;2023-07-24T05:27:44;93589.78;;;19.96;100.00
10988;BME280;5547;42.672;23.230;2023-07-24T05:30:44;93588.84;;;20.08;100.00
10988;BME280;5547;42.672;23.230;2023-07-24T05:33:45;93586.78;;;19.94;100.00
10988;BME280;5547;42.672;23.230;2023-07-24T05:36:45;93572.69;;;20.23;100.00
10988;BME280;5547;42.672;23.230;2023-07-24T05:39:46;93575.94;;;20.51;100.00
10988;BME280;5547;42.672;23.230;2023-07-24T05:42:46;93578.81;;;20.72;100.00
10988;BME280;5547;42.672;23.230;2023-07-24T05:45:47;93585.50;;;21.01;100.00
10988;BME280;5547;42.672;23.230;2023-07-24T05:48:48;93595.50;;;21.24;100.00
10988;BME280;5547;42.672;23.230;2023-07-24T05:51:49;93519.84;;;20.85;100.00
10988;BME280;5547;42.672;23.230;2023-07-24T05:54:49;93555.81;;;21.21;100.00
10988;BME280;5547;42.672;23.230;2023-07-24T05:57:49;93584.59;;;21.48;100.00
10988;BME280;5547;42.672;23.230;2023-07-24T06:00:50;93576.09;;;21.70;100.00
10988;BME280;5547;42.672;23.230;2023-07-24T06:03:50;93577.44;;;21.80;100.00
10988;BME280;5547;42.672;23.230;2023-07-24T06:06:51;93582.97;;;21.71;100.00
10988;BME280;5547;42.672;23.230;2023-07-24T06:09:51;93569.88;;;21.85;100.00
10988;BME280;5547;42.672;23.230;2023-07-24T06:12:51;93576.16;;;22.11;100.00
10988;BME280;5547;42.672;23.230;2023-07-24T06:15:52;93588.41;;;22.42;100.00
10988;BME280;5547;42.672;23.230;2023-07-24T06:18:52;93584.75;;;22.45;100.00
10988;BME280;5547;42.672;23.230;2023-07-24T06:21:53;93561.13;;;22.10;100.00
10988;BME280;5547;42.672;23.230;2023-07-24T06:24:53;93582.09;;;22.30;100.00
10988;BME280;5547;42.672;23.230;2023-07-24T06:27:54;93569.56;;;22.53;100.00
10988;BME280;5547;42.672;23.230;2023-07-24T06:30:54;93579.41;;;22.30;100.00
10988;BME280;5547;42.672;23.230;2023-07-24T06:33:55;93582.22;;;22.62;100.00
10988;BME280;5547;42.672;23.230;2023-07-24T06:36:55;93540.03;;;22.35;100.00
10988;BME280;5547;42.672;23.230;2023-07-24T06:39:56;93542.06;;;22.40;100.00
10988;BME280;5547;42.672;23.230;2023-07-24T06:42:57;93559.34;;;23.10;100.00
10988;BME280;5547;42.672;23.230;2023-07-24T06:45:57;93572.72;;;22.93;100.00
10988;BME280;5547;42.672;23.230;2023-07-24T06:48:58;93566.88;;;23.00;100.00
10988;BME280;5547;42.672;23.230;2023-07-24T06:51:58;93584.03;;;23.12;100.00
10988;BME280;5547;42.672;23.230;2023-07-24T06:54:58;93552.50;;;22.94;100.00
10988;BME280;5547;42.672;23.230;2023-07-24T06:57:59;93573.88;;;22.86;100.00
10988;BME280;5547;42.672;23.230;2023-07-24T07:00:59;93578.78;;;23.08;100.00
10988;BME280;5547;42.672;23.230;2023-07-24T07:04:00;93584.97;;;23.35;100.00
10988;BME280;5547;42.672;23.230;2023-07-24T07:07:00;93584.59;;;23.21;100.00
10988;BME280;5547;42.672;23.230;2023-07-24T07:10:00;93590.66;;;23.11;100.00
10988;BME280;5547;42.672;23.230;2023-07-24T07:13:01;93576.03;;;23.02;100.00
10988;BME280;5547;42.672;23.230;2023-07-24T07:16:01;93589.25;;;23.47;100.00
10988;BME280;5547;42.672;23.230;2023-07-24T07:19:02;93573.41;;;23.40;100.00
10988;BME280;5547;42.672;23.230;2023-07-24T07:22:03;93557.56;;;23.33;100.00
10988;BME280;5547;42.672;23.230;2023-07-24T07:25:03;93570.63;;;23.60;100.00
10988;BME280;5547;42.672;23.230;2023-07-24T07:28:04;93569.88;;;23.60;100.00
10988;BME280;5547;42.672;23.230;2023-07-24T07:31:04;93561.94;;;23.56;100.00
10988;BME280;5547;42.672;23.230;2023-07-24T07:34:05;93562.47;;;23.92;100.00
10988;BME280;5547;42.672;23.230;2023-07-24T07:37:06;93558.56;;;23.67;100.00
10988;BME280;5547;42.672;23.230;2023-07-24T07:40:07;93548.38;;;23.56;100.00
10988;BME280;5547;42.672;23.230;2023-07-24T07:43:07;93571.50;;;24.21;100.00
10988;BME280;5547;42.672;23.230;2023-07-24T07:46:08;93569.25;;;24.14;100.00
10988;BME280;5547;42.672;23.230;2023-07-24T07:49:09;93569.25;;;24.08;100.00
10988;BME280;5547;42.672;23.230;2023-07-24T07:52:09;93556.00;;;24.27;100.00
10988;BME280;5547;42.672;23.230;2023-07-24T07:55:10;93555.28;;;24.38;100.00
10988;BME280;5547;42.672;23.230;2023-07-24T07:58:11;93540.06;;;24.57;100.00
10988;BME280;5547;42.672;23.230;2023-07-24T08:01:11;93550.75;;;24.66;100.00
10988;BME280;5547;42.672;23.230;2023-07-24T08:04:12;93546.06;;;24.84;100.00
10988;BME280;5547;42.672;23.230;2023-07-24T08:07:12;93571.91;;;25.22;100.00
10988;BME280;5547;42.672;23.230;2023-07-24T08:10:13;93574.56;;;24.94;100.00
10988;BME280;5547;42.672;23.230;2023-07-24T08:13:15;93563.25;;;25.29;100.00
10988;BME280;5547;42.672;23.230;2023-07-24T08:16:15;93556.06;;;25.32;100.00
10988;BME280;5547;42.672;23.230;2023-07-24T08:19:19;93563.25;;;25.46;100.00
10988;BME280;5547;42.672;23.230;2023-07-24T08:22:20;93545.94;;;25.49;100.00
10988;BME280;5547;42.672;23.230;2023-07-24T08:25:23;93479.09;;;25.09;87.20
10988;BME280;5547;42.672;23.230;2023-07-24T08:28:23;93551.13;;;25.70;83.75
10988;BME280;5547;42.672;23.230;2023-07-24T08:31:24;93517.47;;;25.45;82.09
10988;BME280;5547;42.672;23.230;2023-07-24T08:34:24;93552.38;;;25.91;82.63
10988;BME280;5547;42.672;23.230;2023-07-24T08:37:25;93550.13;;;26.01;75.50
10988;BME280;5547;42.672;23.230;2023-07-24T08:40:25;93544.91;;;25.86;74.65
10988;BME280;5547;42.672;23.230;2023-07-24T08:43:26;93552.09;;;26.06;73.04
10988;BME280;5547;42.672;23.230;2023-07-24T08:46:29;93545.84;;;26.28;77.38
10988;BME280;5547;42.672;23.230;2023-07-24T08:49:30;93536.94;;;26.22;72.10
10988;BME280;5547;42.672;23.230;2023-07-24T08:52:30;93549.41;;;26.76;68.20
10988;BME280;5547;42.672;23.230;2023-07-24T08:55:31;93547.94;;;26.69;67.32
10988;BME280;5547;42.672;23.230;2023-07-24T08:58:32;93546.34;;;26.91;64.02
10988;BME280;5547;42.672;23.230;2023-07-24T09:01:33;93552.28;;;26.89;64.83
10988;BME280;5547;42.672;23.230;2023-07-24T09:04:33;93526.22;;;26.94;62.42
10988;BME280;5547;42.672;23.230;2023-07-24T09:07:35;93547.09;;;27.33;62.83
10988;BME280;5547;42.672;23.230;2023-07-24T09:10:36;93502.56;;;27.08;65.43
10988;BME280;5547;42.672;23.230;2023-07-24T09:13:37;93488.91;;;27.43;65.11
10988;BME280;5547;42.672;23.230;2023-07-24T09:16:38;93546.03;;;27.72;55.22
10988;BME280;5547;42.672;23.230;2023-07-24T09:19:39;93527.09;;;27.49;58.76
10988;BME280;5547;42.672;23.230;2023-07-24T09:22:48;93501.69;;;27.30;57.42
10988;BME280;5547;42.672;23.230;2023-07-24T09:25:48;93523.81;;;27.56;56.63
10988;BME280;5547;42.672;23.230;2023-07-24T09:28:53;93482.78;;;27.62;58.81
10988;BME280;5547;42.672;23.230;2023-07-24T09:31:53;93451.59;;;27.76;56.78
10988;BME280;5547;42.672;23.230;2023-07-24T09:34:54;93513.25;;;28.21;57.73
10988;BME280;5547;42.672;23.230;2023-07-24T09:38:05;93503.72;;;28.52;54.92
10988;BME280;5547;42.672;23.230;2023-07-24T09:41:07;93508.53;;;28.65;53.23
10988;BME280;5547;42.672;23.230;2023-07-24T09:44:11;93485.31;;;28.28;54.22
10988;BME280;5547;42.672;23.230;2023-07-24T09:47:11;93482.94;;;28.19;53.79
10988;BME280;5547;42.672;23.230;2023-07-24T09:50:12;93483.41;;;28.42;56.92
10988;BME280;5547;42.672;23.230;2023-07-24T09:53:33;93446.25;;;28.33;53.59
10988;BME280;5547;42.672;23.230;2023-07-24T09:56:35;93505.50;;;28.49;50.85
10988;BME280;5547;42.672;23.230;2023-07-24T09:59:36;93501.06;;;28.84;51.39
10988;BME280;5547;42.672;23.230;2023-07-24T10:02:37;93456.53;;;28.84;45.53
10988;BME280;5547;42.672;23.230;2023-07-24T10:05:38;93446.63;;;28.81;46.29
10988;BME280;5547;42.672;23.230;2023-07-24T10:08:39;93484.03;;;29.43;49.33
10988;BME280;5547;42.672;23.230;2023-07-24T10:11:40;93454.56;;;29.17;48.16
10988;BME280;5547;42.672;23.230;2023-07-24T10:14:40;93412.31;;;28.80;45.77
10988;BME280;5547;42.672;23.230;2023-07-24T10:17:41;93484.91;;;29.51;46.28
10988;BME280;5547;42.672;23.230;2023-07-24T10:20:42;93394.63;;;29.13;47.43
10988;BME280;5547;42.672;23.230;2023-07-24T10:23:43;93481.06;;;29.86;49.32
10988;BME280;5547;42.672;23.230;2023-07-24T10:26:44;93475.38;;;29.84;43.17
10988;BME280;5547;42.672;23.230;2023-07-24T10:29:44;93464.97;;;29.37;43.45
10988;BME280;5547;42.672;23.230;2023-07-24T10:32:48;93463.56;;;30.03;47.84
10988;BME280;5547;42.672;23.230;2023-07-24T10:35:54;93463.88;;;30.12;47.41
10988;BME280;5547;42.672;23.230;2023-07-24T10:38:55;93482.09;;;30.50;45.10
10988;BME280;5547;42.672;23.230;2023-07-24T10:42:05;93467.56;;;30.28;43.37
10988;BME280;5547;42.672;23.230;2023-07-24T10:45:06;93392.47;;;29.65;43.66
10988;BME280;5547;42.672;23.230;2023-07-24T10:48:07;93465.25;;;30.46;43.23
10988;BME280;5547;42.672;23.230;2023-07-24T10:51:12;93398.69;;;30.19;44.63
10988;BME280;5547;42.672;23.230;2023-07-24T10:54:21;93409.22;;;30.41;46.26
10988;BME280;5547;42.672;23.230;2023-07-24T10:57:26;93452.56;;;30.90;44.75
10988;BME280;5547;42.672;23.230;2023-07-24T11:00:27;93436.22;;;30.50;41.78
10988;BME280;5547;42.672;23.230;2023-07-24T11:03:27;93443.47;;;30.95;42.54
10988;BME280;5547;42.672;23.230;2023-07-24T11:06:28;93408.00;;;30.84;43.14
10988;BME280;5547;42.672;23.230;2023-07-24T11:09:35;93429.03;;;30.82;41.41
10988;BME280;5547;42.672;23.230;2023-07-24T11:12:38;93432.50;;;30.82;41.59
10988;BME280;5547;42.672;23.230;2023-07-24T11:15:39;93402.00;;;30.86;43.44
10988;BME280;5547;42.672;23.230;2023-07-24T11:18:50;93413.19;;;31.09;41.83
10988;BME280;5547;42.672;23.230;2023-07-24T11:21:52;93368.69;;;30.89;42.32
10988;BME280;5547;42.672;23.230;2023-07-24T11:24:52;93419.19;;;31.28;39.44
10988;BME280;5547;42.672;23.230;2023-07-24T11:27:52;93235.13;;;29.47;46.21
10988;BME280;5547;42.672;23.230;2023-07-24T11:30:53;93392.31;;;31.06;40.79
10988;BME280;5547;42.672;23.230;2023-07-24T11:33:54;93228.16;;;29.72;41.42
10988;BME280;5547;42.672;23.230;2023-07-24T11:36:55;93413.72;;;31.28;41.46
10988;BME280;5547;42.672;23.230;2023-07-24T11:42:56;93413.22;;;31.58;42.43
10988;BME280;5547;42.672;23.230;2023-07-24T11:45:57;93370.16;;;31.32;40.62
10988;BME280;5547;42.672;23.230;2023-07-24T11:48:57;93380.72;;;31.78;42.46
10988;BME280;5547;42.672;23.230;2023-07-24T11:52:05;93376.72;;;32.15;40.20
10988;BME280;5547;42.672;23.230;2023-07-24T11:55:07;93356.00;;;32.14;39.90
10988;BME280;5547;42.672;23.230;2023-07-24T11:58:07;93337.53;;;31.94;40.38
10988;BME280;5547;42.672;23.230;2023-07-24T12:01:08;93321.63;;;31.64;39.31
10988;BME280;5547;42.672;23.230;2023-07-24T12:04:08;93333.19;;;32.06;36.54
10988;BME280;5547;42.672;23.230;2023-07-24T12:07:09;93390.16;;;32.27;37.58
10988;BME280;5547;42.672;23.230;2023-07-24T12:10:09;93372.38;;;31.91;41.54
10988;BME280;5547;42.672;23.230;2023-07-24T12:13:10;93307.44;;;30.94;41.03
10988;BME280;5547;42.672;23.230;2023-07-24T12:16:11;93389.59;;;31.92;42.17
10988;BME280;5547;42.672;23.230;2023-07-24T12:19:11;93370.44;;;32.51;38.91
10988;BME280;5547;42.672;23.230;2023-07-24T12:22:12;93256.00;;;30.95;36.22
10988;BME280;5547;42.672;23.230;2023-07-24T12:25:12;93279.47;;;31.32;37.54
10988;BME280;5547;42.672;23.230;2023-07-24T12:28:13;93255.47;;;31.69;37.30
10988;BME280;5547;42.672;23.230;2023-07-24T12:31:14;93376.31;;;32.55;38.93
10988;BME280;5547;42.672;23.230;2023-07-24T12:34:15;93374.78;;;31.66;39.57
10988;BME280;5547;42.672;23.230;2023-07-24T12:37:15;93281.34;;;31.09;39.96
10988;BME280;5547;42.672;23.230;2023-07-24T12:40:16;93232.41;;;30.78;37.53
10988;BME280;5547;42.672;23.230;2023-07-24T12:43:16;93169.47;;;30.81;37.62
10988;BME280;5547;42.672;23.230;2023-07-24T12:46:17;93291.44;;;31.79;38.46
10988;BME280;5547;42.672;23.230;2023-07-24T12:49:17;93362.50;;;31.67;37.63
10988;BME280;5547;42.672;23.230;2023-07-24T12:52:18;93358.38;;;32.18;37.23
10988;BME280;5547;42.672;23.230;2023-07-24T12:55:18;93312.84;;;31.36;39.69
10988;BME280;5547;42.672;23.230;2023-07-24T12:58:19;93166.06;;;30.17;39.41
10988;BME280;5547;42.672;23.230;2023-07-24T13:01:19;93314.78;;;31.28;38.65
10988;BME280;5547;42.672;23.230;2023-07-24T13:04:20;93323.91;;;31.23;36.78
10988;BME280;5547;42.672;23.230;2023-07-24T13:07:20;93173.47;;;30.79;36.82
10988;BME280;5547;42.672;23.230;2023-07-24T13:10:21;93285.59;;;31.82;32.56
10988;BME280;5547;42.672;23.230;2023-07-24T13:13:21;93312.84;;;32.09;35.04
10988;BME280;5547;42.672;23.230;2023-07-24T13:16:23;93313.22;;;31.69;29.32
10988;BME280;5547;42.672;23.230;2023-07-24T13:19:23;93356.31;;;32.03;29.98
10988;BME280;5547;42.672;23.230;2023-07-24T13:22:24;93248.72;;;31.34;28.67
10988;BME280;5547;42.672;23.230;2023-07-24T13:25:24;93234.81;;;31.39;28.95
10988;BME280;5547;42.672;23.230;2023-07-24T13:28:25;93237.59;;;31.91;31.18
10988;BME280;5547;42.672;23.230;2023-07-24T13:31:26;93343.13;;;32.84;29.03
10988;BME280;5547;42.672;23.230;2023-07-24T13:34:28;93312.72;;;32.22;28.50
10988;BME280;5547;42.672;23.230;2023-07-24T13:37:29;93152.94;;;31.02;27.30
10988;BME280;5547;42.672;23.230;2023-07-24T13:40:29;93325.47;;;31.97;29.76
10988;BME280;5547;42.672;23.230;2023-07-24T13:43:31;93286.91;;;31.89;31.75
10988;BME280;5547;42.672;23.230;2023-07-24T13:46:31;93244.81;;;31.66;30.92
10988;BME280;5547;42.672;23.230;2023-07-24T13:49:32;93283.69;;;31.70;29.59
10988;BME280;5547;42.672;23.230;2023-07-24T13:52:32;93219.81;;;31.12;31.00
10988;BME280;5547;42.672;23.230;2023-07-24T13:55:33;93318.00;;;31.69;32.91
10988;BME280;5547;42.672;23.230;2023-07-24T13:58:33;93295.00;;;31.58;31.41
10988;BME280;5547;42.672;23.230;2023-07-24T14:01:34;93323.88;;;31.73;30.92
10988;BME280;5547;42.672;23.230;2023-07-24T14:04:34;93299.97;;;31.60;30.50
10988;BME280;5547;42.672;23.230;2023-07-24T14:07:35;93320.66;;;31.90;30.81
10988;BME280;5547;42.672;23.230;2023-07-24T14:10:35;93252.44;;;31.15;31.89
10988;BME280;5547;42.672;23.230;2023-07-24T14:13:36;93324.84;;;31.91;30.80
10988;BME280;5547;42.672;23.230;2023-07-24T14:16:36;93298.56;;;31.67;29.41
10988;BME280;5547;42.672;23.230;2023-07-24T14:19:37;93273.28;;;31.76;27.16
10988;BME280;5547;42.672;23.230;2023-07-24T14:22:37;93321.81;;;32.54;27.84
10988;BME280;5547;42.672;23.230;2023-07-24T14:25:38;93265.94;;;32.15;27.16
10988;BME280;5547;42.672;23.230;2023-07-24T14:28:38;93312.97;;;32.55;28.16
10988;BME280;5547;42.672;23.230;2023-07-24T14:31:38;93230.41;;;32.63;27.50
10988;BME280;5547;42.672;23.230;2023-07-24T14:34:39;93319.03;;;33.54;27.18
10988;BME280;5547;42.672;23.230;2023-07-24T14:37:39;93321.66;;;32.75;26.11
10988;BME280;5547;42.672;23.230;2023-07-24T14:40:40;93243.06;;;32.58;26.31
10988;BME280;5547;42.672;23.230;2023-07-24T14:43:40;93202.25;;;32.18;25.64
10988;BME280;5547;42.672;23.230;2023-07-24T14:46:41;93313.03;;;33.09;25.62
10988;BME280;5547;42.672;23.230;2023-07-24T14:49:41;93303.19;;;32.39;26.78
10988;BME280;5547;42.672;23.230;2023-07-24T14:52:42;93321.19;;;32.40;27.66
10988;BME280;5547;42.672;23.230;2023-07-24T14:55:43;93197.69;;;31.54;26.83
10988;BME280;5547;42.672;23.230;2023-07-24T14:58:43;93310.50;;;32.21;27.99
10988;BME280;5547;42.672;23.230;2023-07-24T15:01:45;93309.88;;;32.59;27.84
10988;BME280;5547;42.672;23.230;2023-07-24T15:04:46;93309.38;;;32.16;28.48
10988;BME280;5547;42.672;23.230;2023-07-24T15:07:46;93308.50;;;32.37;27.51
10988;BME280;5547;42.672;23.230;2023-07-24T15:10:46;93284.03;;;32.02;29.59
10988;BME280;5547;42.672;23.230;2023-07-24T15:13:47;93294.38;;;31.81;29.55
10988;BME280;5547;42.672;23.230;2023-07-24T15:16:47;93286.72;;;31.43;28.46
10988;BME280;5547;42.672;23.230;2023-07-24T15:19:47;93283.22;;;31.43;29.97
10988;BME280;5547;42.672;23.230;2023-07-24T15:22:48;93280.47;;;31.14;28.44
10988;BME280;5547;42.672;23.230;2023-07-24T15:25:48;93273.78;;;31.02;28.92
10988;BME280;5547;42.672;23.230;2023-07-24T15:28:49;93274.22;;;30.85;30.14
10988;BME280;5547;42.672;23.230;2023-07-24T15:31:49;93234.81;;;30.32;29.38
10988;BME280;5547;42.672;23.230;2023-07-24T15:34:50;93192.78;;;29.82;30.16
10988;BME280;5547;42.672;23.230;2023-07-24T15:37:50;93155.06;;;29.41;31.57
10988;BME280;5547;42.672;23.230;2023-07-24T15:40:50;93267.19;;;30.34;31.68
10988;BME280;5547;42.672;23.230;2023-07-24T15:43:51;93216.28;;;29.91;31.36
10988;BME280;5547;42.672;23.230;2023-07-24T15:46:51;93266.59;;;30.14;30.97
10988;BME280;5547;42.672;23.230;2023-07-24T15:49:52;93282.75;;;30.18;31.67
10988;BME280;5547;42.672;23.230;2023-07-24T15:52:52;93261.97;;;30.09;31.52
10988;BME280;5547;42.672;23.230;2023-07-24T15:55:53;93198.13;;;29.53;32.56
10988;BME280;5547;42.672;23.230;2023-07-24T15:58:54;93280.94;;;30.21;33.15